Time;durP1;ratioP1;P1;durP2;ratioP2;P2;SDS_P1;SDS_P2;PMS_P1;PMS_P2;Temp;Humidity;BMP_temperature;BMP_pressure;BME280_temperature;BME280_humidity;BME280_pressure;Samples;Min_cycle;Max_cycle;Signal;HPM_P1;HPM_P2
2024/03/31 00:00:19;;;;;;;5.75;1.48;;;;;;;5.78;100.00;91549.59;5013710;28;20041;-77
2024/03/31 00:02:48;;;;;;;9.40;2.10;;;;;;;5.80;100.00;91552.69;4996106;28;20042;-78
2024/03/31 00:05:14;;;;;;;10.65;2.17;;;;;;;5.84;100.00;91553.66;4998440;28;20037;-77
2024/03/31 00:07:40;;;;;;;13.50;2.25;;;;;;;5.87;100.00;91558.28;4989694;28;20038;-77
2024/03/31 00:10:06;;;;;;;13.32;2.65;;;;;;;5.88;100.00;91557.25;4991791;28;20055;-77
2024/03/31 00:12:32;;;;;;;14.80;2.45;;;;;;;5.91;100.00;91554.09;5012723;28;20037;-77
2024/03/31 00:14:57;;;;;;;10.32;2.45;;;;;;;5.96;100.00;91561.84;4996719;28;20041;-78
2024/03/31 00:17:23;;;;;;;6.68;1.75;;;;;;;6.00;100.00;91555.03;5013664;28;20072;-76
2024/03/31 00:19:49;;;;;;;19.95;2.35;;;;;;;6.01;100.00;91554.00;4995579;28;20042;-78
2024/03/31 00:22:15;;;;;;;15.38;2.20;;;;;;;6.01;100.00;91548.81;4995584;28;20101;-78
2024/03/31 00:24:44;;;;;;;14.00;2.70;;;;;;;6.05;100.00;91552.38;5006579;28;20105;-77
2024/03/31 00:27:10;;;;;;;12.55;2.42;;;;;;;6.07;100.00;91536.50;4996731;28;20038;-77
2024/03/31 00:29:36;;;;;;;18.15;2.58;;;;;;;6.09;100.00;91550.00;4980170;28;20065;-77
2024/03/31 00:32:02;;;;;;;12.88;2.60;;;;;;;6.13;100.00;91540.59;5013058;28;20117;-78
2024/03/31 00:34:28;;;;;;;10.88;2.33;;;;;;;6.12;100.00;91533.81;5013020;28;20048;-76
2024/03/31 00:36:54;;;;;;;15.15;2.22;;;;;;;6.16;100.00;91540.00;4996207;28;20569;-78
2024/03/31 00:39:19;;;;;;;11.50;2.20;;;;;;;6.18;100.00;91543.09;5000149;28;20503;-77
2024/03/31 00:41:45;;;;;;;14.98;2.33;;;;;;;6.20;100.00;91535.03;4990417;28;20034;-78
2024/03/31 00:44:11;;;;;;;17.80;2.78;;;;;;;6.19;100.00;91525.69;5000321;28;20499;-78
2024/03/31 00:46:36;;;;;;;19.65;2.97;;;;;;;6.21;100.00;91528.78;5012443;28;20046;-78
2024/03/31 00:49:02;;;;;;;20.92;3.85;;;;;;;6.21;100.00;91531.38;4995875;28;20037;-77
2024/03/31 00:51:28;;;;;;;22.95;3.67;;;;;;;6.22;100.00;91528.50;4977976;28;20034;-78
2024/03/31 00:53:54;;;;;;;21.73;2.97;;;;;;;6.43;100.00;91525.59;4985179;28;20026;-77
2024/03/31 00:56:20;;;;;;;20.88;3.67;;;;;;;6.60;100.00;91522.50;4995947;28;20491;-78
2024/03/31 00:58:46;;;;;;;20.48;3.10;;;;;;;6.59;100.00;91521.69;4995939;28;20045;-78
2024/03/31 01:01:12;;;;;;;20.10;2.70;;;;;;;6.59;100.00;91515.72;4996223;28;20042;-77
2024/03/31 01:03:38;;;;;;;22.52;3.63;;;;;;;6.59;100.00;91513.13;4996000;28;20048;-77
2024/03/31 01:06:10;;;;;;;18.58;3.53;;;;;;;6.56;100.00;91506.66;4979066;28;20038;-78
2024/03/31 01:08:36;;;;;;;26.45;3.10;;;;;;;6.56;100.00;91495.50;4988702;28;20039;-76
2024/03/31 01:11:02;;;;;;;14.40;2.55;;;;;;;6.56;100.00;91503.31;4997522;28;20022;-78
2024/03/31 01:13:28;;;;;;;17.63;3.53;;;;;;;6.55;100.00;91499.16;4976389;28;20077;-77
2024/03/31 01:15:55;;;;;;;14.43;2.92;;;;;;;6.53;100.00;91502.06;4976511;28;20287;-77
2024/03/31 01:18:20;;;;;;;21.58;3.35;;;;;;;6.52;100.00;91500.50;5010760;28;20034;-78
2024/03/31 01:20:46;;;;;;;18.77;2.83;;;;;;;6.50;100.00;91491.44;4994690;28;20049;-78
2024/03/31 01:23:15;;;;;;;18.15;2.90;;;;;;;6.46;100.00;91492.00;5008465;28;20034;-77
2024/03/31 01:25:41;;;;;;;18.80;3.53;;;;;;;6.46;100.00;91488.63;5000988;28;20058;-77
2024/03/31 01:28:06;;;;;;;19.08;2.78;;;;;;;6.44;100.00;91483.72;4992461;28;20080;-78
2024/03/31 01:30:32;;;;;;;19.15;2.65;;;;;;;6.47;100.00;91492.78;5002275;28;20056;-77
2024/03/31 01:32:59;;;;;;;23.08;3.00;;;;;;;6.47;100.00;91485.75;4989565;28;20046;-78
2024/03/31 01:35:25;;;;;;;12.48;3.47;;;;;;;6.50;100.00;91486.22;4994981;28;20116;-78
2024/03/31 01:37:51;;;;;;;20.48;2.75;;;;;;;6.50;100.00;91494.03;5013216;28;20172;-78
2024/03/31 01:40:17;;;;;;;20.90;2.75;;;;;;;6.51;100.00;91498.16;4986034;28;20081;-78
2024/03/31 01:42:47;;;;;;;6.18;2.25;;;;;;;6.78;100.00;91498.25;5007652;28;20040;-75
2024/03/31 01:45:14;;;;;;;335.63;8.43;;;;;;;6.50;100.00;91507.81;5011666;28;20030;-77
2024/03/31 01:47:40;;;;;;;16.00;3.05;;;;;;;6.35;100.00;91508.81;4988185;28;20618;-78
2024/03/31 01:50:06;;;;;;;13.20;2.60;;;;;;;6.29;100.00;91509.19;5010936;28;20050;-78
2024/03/31 01:52:31;;;;;;;15.60;3.13;;;;;;;6.25;100.00;91512.34;4991468;28;20153;-77
2024/03/31 01:54:58;;;;;;;17.63;2.42;;;;;;;6.24;100.00;91515.22;4996255;28;20484;-77
2024/03/31 01:57:24;;;;;;;15.75;2.50;;;;;;;6.25;100.00;91522.72;4985459;28;20038;-78
2024/03/31 01:59:49;;;;;;;13.68;2.63;;;;;;;6.32;100.00;91522.38;4982795;28;20034;-77
2024/03/31 02:02:15;;;;;;;14.55;2.47;;;;;;;6.31;100.00;91526.03;4991994;28;20045;-77
2024/03/31 02:04:41;;;;;;;20.95;2.75;;;;;;;6.31;100.00;91526.03;4980277;28;20064;-78
2024/03/31 02:07:06;;;;;;;21.40;2.80;;;;;;;6.30;100.00;91528.91;5011525;28;20530;-78
2024/03/31 02:09:32;;;;;;;15.38;2.60;;;;;;;6.30;100.00;91529.69;4980624;28;20045;-78
2024/03/31 02:11:58;;;;;;;15.75;2.90;;;;;;;6.31;100.00;91523.44;4995187;28;20042;-78
2024/03/31 02:14:23;;;;;;;17.90;3.10;;;;;;;6.32;100.00;91527.56;4994083;28;20041;-76
2024/03/31 02:16:49;;;;;;;14.73;2.25;;;;;;;6.32;100.00;91526.81;4981216;28;20496;-77
2024/03/31 02:19:15;;;;;;;13.57;2.53;;;;;;;6.32;100.00;91527.56;5011077;28;20593;-77
2024/03/31 02:21:40;;;;;;;11.73;2.20;;;;;;;6.34;100.00;91530.66;5012311;28;20512;-77
2024/03/31 02:24:06;;;;;;;16.10;2.72;;;;;;;6.29;100.00;91530.75;4994331;28;20037;-77
2024/03/31 02:26:34;;;;;;;8.18;1.90;;;;;;;6.30;100.00;91510.72;5009687;28;20407;-77
2024/03/31 02:29:04;;;;;;;12.05;2.05;;;;;;;6.19;100.00;91489.28;4992262;28;20061;-77
2024/03/31 02:31:30;;;;;;;11.48;2.22;;;;;;;6.23;100.00;91498.84;4983992;28;20129;-78
2024/03/31 02:33:56;;;;;;;10.82;2.20;;;;;;;6.21;100.00;91500.19;4992578;28;20042;-78
2024/03/31 02:36:22;;;;;;;10.85;2.00;;;;;;;6.20;100.00;91488.25;5003051;28;20088;-77
2024/03/31 02:38:48;;;;;;;9.98;2.08;;;;;;;6.18;100.00;91485.16;4978602;28;20527;-78
2024/03/31 02:41:13;;;;;;;7.03;1.88;;;;;;;6.15;100.00;91480.53;4989104;28;20053;-77
2024/03/31 02:43:40;;;;;;;8.48;1.92;;;;;;;6.14;100.00;91476.38;5012483;28;20037;-77
2024/03/31 02:46:06;;;;;;;10.70;1.67;;;;;;;6.12;100.00;91483.69;4989261;28;20034;-77
2024/03/31 02:48:32;;;;;;;14.90;1.95;;;;;;;6.11;100.00;91484.75;4985716;28;20416;-76
2024/03/31 02:50:58;;;;;;;11.93;2.20;;;;;;;6.11;100.00;91493.31;4991867;28;20049;-76
2024/03/31 02:53:24;;;;;;;14.15;2.28;;;;;;;6.11;100.00;91495.16;4992426;28;20030;-77
2024/03/31 02:55:49;;;;;;;11.05;2.60;;;;;;;6.12;100.00;91491.50;5012572;28;20251;-78
2024/03/31 02:58:15;;;;;;;9.82;1.92;;;;;;;6.12;100.00;91496.69;4990913;28;20087;-78
2024/03/31 03:00:41;;;;;;;11.60;2.67;;;;;;;6.12;100.00;91500.03;4993970;28;20129;-77
2024/03/31 03:03:07;;;;;;;17.48;2.22;;;;;;;6.14;100.00;91499.78;4954845;28;20042;-78
2024/03/31 03:05:32;;;;;;;13.48;2.42;;;;;;;6.46;100.00;91499.81;4981048;28;20641;-77
2024/03/31 03:08:00;;;;;;;15.07;2.53;;;;;;;6.31;100.00;91502.66;4985748;28;20026;-78
2024/03/31 03:10:26;;;;;;;20.08;2.83;;;;;;;6.32;100.00;91506.78;4990810;28;20060;-77
2024/03/31 03:12:51;;;;;;;14.02;2.75;;;;;;;6.31;100.00;91500.03;5011705;28;20030;-77
2024/03/31 03:15:17;;;;;;;10.45;2.40;;;;;;;6.33;100.00;91505.72;4985918;28;20132;-76
2024/03/31 03:17:46;;;;;;;19.92;3.25;;;;;;;6.35;100.00;91495.81;4993503;28;20072;-77
2024/03/31 03:20:12;;;;;;;16.40;2.70;;;;;;;6.31;100.00;91520.84;4994029;28;20073;-77
2024/03/31 03:22:37;;;;;;;11.80;2.33;;;;;;;6.29;100.00;91511.78;4994363;28;20065;-78
2024/03/31 03:25:03;;;;;;;11.70;2.38;;;;;;;6.27;100.00;91509.47;5005677;28;20049;-78
2024/03/31 03:27:29;;;;;;;15.73;2.33;;;;;;;6.24;100.00;91516.00;4987344;28;20037;-77
2024/03/31 03:29:54;;;;;;;16.58;2.65;;;;;;;6.22;100.00;91502.50;4986612;28;20072;-77
2024/03/31 03:32:21;;;;;;;9.60;2.45;;;;;;;6.20;100.00;91507.22;4993281;28;20207;-77
2024/03/31 03:34:51;;;;;;;13.27;3.15;;;;;;;6.18;100.00;91487.78;4994179;28;20038;-77
2024/03/31 03:37:17;;;;;;;18.75;2.80;;;;;;;6.17;100.00;91488.81;4992862;28;20041;-77
2024/03/31 03:39:43;;;;;;;14.98;2.35;;;;;;;6.17;100.00;91494.00;5000980;28;20157;-77
2024/03/31 03:42:09;;;;;;;15.77;2.67;;;;;;;6.17;100.00;91494.78;4979820;28;20097;-78
2024/03/31 03:44:35;;;;;;;13.70;2.90;;;;;;;6.17;100.00;91488.81;4984383;28;20030;-76
2024/03/31 03:47:00;;;;;;;16.25;2.65;;;;;;;6.16;100.00;91500.28;5008849;28;20073;-77
2024/03/31 03:49:26;;;;;;;16.38;2.65;;;;;;;6.16;100.00;91497.66;4997186;28;20038;-77
2024/03/31 03:51:52;;;;;;;16.60;2.88;;;;;;;6.15;100.00;91496.13;4994687;28;20091;-78
2024/03/31 03:54:18;;;;;;;12.63;2.42;;;;;;;6.14;100.00;91504.97;5008680;28;20084;-77
2024/03/31 03:56:44;;;;;;;14.73;2.35;;;;;;;6.15;100.00;91501.34;4991848;28;20069;-77
2024/03/31 03:59:14;;;;;;;15.52;2.92;;;;;;;6.15;100.00;91501.34;4980633;28;20037;-78
2024/03/31 04:01:39;;;;;;;26.50;3.22;;;;;;;6.16;100.00;91497.66;4992374;28;20112;-78
2024/03/31 04:04:05;;;;;;;15.98;3.35;;;;;;;6.16;100.00;91485.44;4961494;28;20041;-77
2024/03/31 04:06:31;;;;;;;17.08;2.63;;;;;;;6.19;100.00;91476.31;4988035;28;20041;-77
2024/03/31 04:08:58;;;;;;;20.77;2.80;;;;;;;6.21;100.00;91463.81;4993079;28;20491;-78
2024/03/31 04:11:24;;;;;;;22.83;3.30;;;;;;;6.22;100.00;91463.53;4997683;28;20026;-78
2024/03/31 04:13:51;;;;;;;26.75;2.97;;;;;;;6.22;100.00;91460.94;4996864;28;20026;-77
2024/03/31 04:16:16;;;;;;;20.73;3.80;;;;;;;6.22;100.00;91460.16;4996668;28;20042;-78
2024/03/31 04:18:44;;;;;;;22.52;3.15;;;;;;;6.20;100.00;91454.47;4983875;28;20117;-77
2024/03/31 04:21:10;;;;;;;13.98;2.75;;;;;;;6.22;100.00;91454.97;4992034;28;20415;-78
2024/03/31 04:23:36;;;;;;;20.40;3.35;;;;;;;6.21;100.00;91456.00;4980332;28;20049;-77
2024/03/31 04:26:02;;;;;;;18.98;3.03;;;;;;;6.21;100.00;91453.41;4993275;28;20049;-77
2024/03/31 04:28:28;;;;;;;27.60;3.05;;;;;;;6.21;100.00;91451.59;4978912;28;20077;-78
2024/03/31 04:30:54;;;;;;;18.17;3.28;;;;;;;6.22;100.00;91452.38;4994429;28;20037;-77
2024/03/31 04:33:20;;;;;;;18.13;3.22;;;;;;;6.22;100.00;91450.53;4988510;28;20022;-77
2024/03/31 04:35:45;;;;;;;15.05;2.72;;;;;;;6.24;100.00;91447.66;4972395;28;20554;-77
2024/03/31 04:38:12;;;;;;;17.13;2.85;;;;;;;6.25;100.00;91446.59;4986605;28;20093;-76
2024/03/31 04:40:37;;;;;;;24.23;3.58;;;;;;;6.25;100.00;91442.16;4998000;28;20049;-76
2024/03/31 04:43:03;;;;;;;20.25;3.20;;;;;;;6.27;100.00;91433.31;5009651;28;20403;-78
2024/03/31 04:45:32;;;;;;;24.55;3.25;;;;;;;6.28;100.00;91433.00;4992106;28;20482;-78
2024/03/31 04:48:04;;;;;;;16.02;3.30;;;;;;;6.30;100.00;91438.72;4987955;28;20038;-77
2024/03/31 04:50:36;;;;;;;19.02;3.13;;;;;;;6.32;100.00;91449.59;4981877;28;20073;-77
2024/03/31 04:53:01;;;;;;;16.27;2.55;;;;;;;6.34;100.00;91436.31;4995811;28;20128;-78
2024/03/31 04:55:27;;;;;;;22.02;3.00;;;;;;;6.35;100.00;91437.84;4995957;28;20128;-77
2024/03/31 04:57:54;;;;;;;15.68;2.95;;;;;;;6.36;100.00;91434.97;5020891;28;20044;-77
2024/03/31 05:00:20;;;;;;;12.85;2.72;;;;;;;6.38;100.00;91432.09;4994077;28;20045;-76
2024/03/31 05:02:46;;;;;;;19.70;3.30;;;;;;;6.42;100.00;91427.88;4982896;28;20042;-78
2024/03/31 05:05:12;;;;;;;17.45;2.97;;;;;;;6.43;100.00;91419.78;4976214;28;20034;-76
2024/03/31 05:07:38;;;;;;;18.00;3.00;;;;;;;6.43;100.00;91424.97;5015381;28;20053;-78
2024/03/31 05:10:04;;;;;;;20.88;3.58;;;;;;;6.44;100.00;91418.72;4991854;28;20038;-77
2024/03/31 05:12:30;;;;;;;19.65;3.60;;;;;;;6.45;100.00;91406.50;4995100;28;20038;-78
2024/03/31 05:14:55;;;;;;;20.65;3.63;;;;;;;6.47;100.00;91401.78;4987943;28;20556;-78
2024/03/31 05:17:21;;;;;;;26.17;3.25;;;;;;;6.47;100.00;91394.75;5012561;28;20147;-77
2024/03/31 05:19:51;;;;;;;21.45;3.13;;;;;;;6.50;100.00;91405.63;4993671;28;20073;-77
2024/03/31 05:22:16;;;;;;;22.20;3.08;;;;;;;6.50;100.00;91397.84;4995173;28;20550;-77
2024/03/31 05:24:44;;;;;;;21.98;3.25;;;;;;;6.52;100.00;91393.13;4959210;28;20030;-77
2024/03/31 05:27:11;;;;;;;385.20;9.18;;;;;;;6.45;100.00;91399.47;4995447;28;20045;-78
2024/03/31 05:29:36;;;;;;;17.17;2.78;;;;;;;6.40;100.00;91399.56;5007097;28;20093;-76
2024/03/31 05:32:02;;;;;;;15.18;2.55;;;;;;;6.41;100.00;91401.09;4987696;28;20492;-76
2024/03/31 05:34:48;;;;;;;15.18;3.35;;;;;;;6.60;100.00;91408.84;5010270;28;20426;-78
2024/03/31 05:37:14;;;;;;;21.63;2.72;;;;;;;6.41;100.00;91402.91;5008854;28;20034;-77
2024/03/31 05:39:40;;;;;;;14.70;2.65;;;;;;;6.31;100.00;91411.66;4988331;28;20133;-77
2024/03/31 05:42:06;;;;;;;14.52;2.65;;;;;;;6.32;100.00;91421.00;4967780;28;20764;-78
2024/03/31 05:44:31;;;;;;;14.75;2.63;;;;;;;6.27;100.00;91425.53;5000596;28;20049;-77
2024/03/31 05:46:57;;;;;;;16.63;2.63;;;;;;;6.34;100.00;91425.91;4993201;28;20038;-76
2024/03/31 05:49:23;;;;;;;49.85;18.50;;;;;;;6.28;100.00;91427.06;4990682;28;20052;-77
2024/03/31 05:51:49;;;;;;;13.60;2.38;;;;;;;6.41;100.00;91421.13;4983900;28;20061;-77
2024/03/31 05:54:15;;;;;;;17.30;2.90;;;;;;;6.50;100.00;91439.44;4992057;28;20060;-77
2024/03/31 05:56:41;;;;;;;16.05;2.38;;;;;;;6.58;100.00;91431.75;5006351;28;20062;-77
2024/03/31 05:59:07;;;;;;;18.48;2.50;;;;;;;6.47;100.00;91422.59;4978387;28;20347;-77
2024/03/31 06:01:34;;;;;;;10.18;2.30;;;;;;;6.46;100.00;91418.44;4997428;28;20077;-77
2024/03/31 06:04:00;;;;;;;14.45;3.40;;;;;;;6.47;100.00;91414.78;4993729;28;20068;-77
2024/03/31 06:06:25;;;;;;;15.00;2.92;;;;;;;6.47;100.00;91417.38;4977222;28;20034;-76
2024/03/31 06:08:52;;;;;;;17.95;2.50;;;;;;;6.47;100.00;91420.75;4988302;28;20052;-77
2024/03/31 06:11:18;;;;;;;14.25;2.58;;;;;;;6.70;100.00;91415.66;4971808;28;20034;-77
2024/03/31 06:13:44;;;;;;;11.35;2.28;;;;;;;6.58;100.00;91410.94;4993494;28;20045;-76
2024/03/31 06:16:13;;;;;;;12.20;3.40;;;;;;;6.56;100.00;91397.47;4974588;28;20145;-77
2024/03/31 06:18:38;;;;;;;13.73;3.22;;;;;;;6.55;100.00;91398.53;4986771;28;20526;-77
2024/03/31 06:21:06;;;;;;;11.55;2.60;;;;;;;6.56;100.00;91394.84;4951441;28;20043;-77
2024/03/31 06:23:32;;;;;;;8.50;3.00;;;;;;;6.61;100.00;91384.34;4950100;29;20050;-77
2024/03/31 06:25:59;;;;;;;11.18;2.55;;;;;;;6.65;100.00;91397.56;4970274;28;20066;-77
2024/03/31 06:28:26;;;;;;;10.13;2.30;;;;;;;6.70;100.00;91389.66;4970867;28;20031;-77
2024/03/31 06:30:52;;;;;;;7.35;2.10;;;;;;;6.68;100.00;91394.38;4962403;28;20045;-77
2024/03/31 06:33:18;;;;;;;6.53;2.53;;;;;;;6.79;100.00;91384.56;4953519;28;20424;-77
2024/03/31 06:35:45;;;;;;;16.02;2.85;;;;;;;6.87;100.00;91392.47;4954567;28;20531;-76
2024/03/31 06:38:11;;;;;;;13.50;2.67;;;;;;;6.76;100.00;91390.34;4967189;28;20027;-77
2024/03/31 06:40:37;;;;;;;12.45;2.30;;;;;;;6.68;100.00;91392.53;4967474;28;20039;-77
2024/03/31 06:43:04;;;;;;;8.18;2.25;;;;;;;6.69;100.00;91393.34;4973492;28;20033;-77
2024/03/31 06:45:32;;;;;;;11.07;2.40;;;;;;;6.62;100.00;91395.53;4968927;28;20043;-77
2024/03/31 06:47:57;;;;;;;10.80;2.28;;;;;;;6.60;100.00;91402.88;4949063;28;20035;-77
2024/03/31 06:50:24;;;;;;;8.20;2.92;;;;;;;6.57;100.00;91398.22;4968441;28;20041;-77
2024/03/31 06:52:50;;;;;;;9.35;2.88;;;;;;;6.51;100.00;91399.38;4961907;28;20032;-77
2024/03/31 06:55:16;;;;;;;10.70;2.00;;;;;;;6.46;100.00;91402.81;4961508;28;20146;-76
2024/03/31 06:57:42;;;;;;;8.00;2.70;;;;;;;6.44;100.00;91399.78;4952887;28;20059;-76
2024/03/31 07:00:09;;;;;;;11.88;3.60;;;;;;;6.45;100.00;91402.06;4961368;28;20074;-77
2024/03/31 07:02:35;;;;;;;10.98;2.80;;;;;;;6.47;100.00;91404.38;4969752;28;20066;-77
2024/03/31 07:05:01;;;;;;;9.73;1.98;;;;;;;6.50;100.00;91390.81;4968648;28;20078;-75
2024/03/31 07:07:26;;;;;;;9.27;2.78;;;;;;;6.51;100.00;91394.97;4969750;28;20122;-75
2024/03/31 07:09:52;;;;;;;14.75;2.60;;;;;;;6.56;100.00;91400.06;4932814;29;20035;-75
2024/03/31 07:12:18;;;;;;;13.75;2.90;;;;;;;6.60;100.00;91398.44;4966251;28;20034;-75
2024/03/31 07:14:44;;;;;;;9.32;2.22;;;;;;;6.73;100.00;91391.69;4951266;28;20076;-75
2024/03/31 07:17:09;;;;;;;11.30;2.15;;;;;;;6.82;100.00;91384.78;4949216;28;20034;-75
2024/03/31 07:19:36;;;;;;;11.32;2.72;;;;;;;6.86;100.00;91383.09;4972702;28;20081;-76
2024/03/31 07:22:02;;;;;;;14.82;3.60;;;;;;;6.87;100.00;91391.72;4989475;28;20150;-76
2024/03/31 07:24:27;;;;;;;13.63;3.05;;;;;;;6.94;100.00;91392.09;4986440;28;20043;-76
2024/03/31 07:26:53;;;;;;;14.80;3.33;;;;;;;6.96;100.00;91395.16;4989691;28;20030;-76
2024/03/31 07:29:19;;;;;;;16.00;2.83;;;;;;;7.35;100.00;91393.88;4989751;28;20039;-76
2024/03/31 07:31:45;;;;;;;13.98;2.65;;;;;;;7.35;100.00;91393.09;4985508;28;20073;-76
2024/03/31 07:34:10;;;;;;;18.52;2.97;;;;;;;7.33;100.00;91403.78;4981997;28;20035;-76
2024/03/31 07:36:36;;;;;;;16.88;2.28;;;;;;;7.35;100.00;91395.72;4985695;28;20511;-76
2024/03/31 07:39:02;;;;;;;34.00;2.85;;;;;;;7.40;100.00;91406.00;4988723;28;20323;-76
2024/03/31 07:41:27;;;;;;;18.52;3.13;;;;;;;7.44;100.00;91418.16;4982054;28;20117;-78
2024/03/31 07:43:53;;;;;;;10.60;2.40;;;;;;;7.32;100.00;91423.09;4981520;28;20066;-77
2024/03/31 07:46:19;;;;;;;9.68;2.22;;;;;;;7.35;100.00;91424.34;4979231;28;20046;-76
2024/03/31 07:48:45;;;;;;;13.45;2.60;;;;;;;7.19;100.00;91418.69;4991059;28;20459;-76
2024/03/31 07:51:10;;;;;;;9.93;1.88;;;;;;;7.12;100.00;91418.31;4992365;28;20054;-77
2024/03/31 07:53:36;;;;;;;12.70;1.85;;;;;;;7.07;100.00;91416.56;4991705;28;20038;-77
2024/03/31 07:56:02;;;;;;;14.20;2.13;;;;;;;7.02;100.00;91414.81;4984961;28;20066;-75
2024/03/31 07:58:28;;;;;;;10.65;2.95;;;;;;;6.99;100.00;91419.84;4983990;28;20046;-76
2024/03/31 08:00:58;;;;;;;12.73;2.97;;;;;;;6.96;100.00;91417.78;4992481;28;20122;-77
2024/03/31 08:03:24;;;;;;;14.88;3.50;;;;;;;7.01;100.00;91410.69;4991497;28;20078;-76
2024/03/31 08:05:50;;;;;;;11.35;2.33;;;;;;;7.05;100.00;91416.09;4993235;28;20026;-76
2024/03/31 08:08:15;;;;;;;14.80;2.30;;;;;;;7.02;100.00;91414.03;4994590;28;20400;-77
2024/03/31 08:10:44;;;;;;;10.32;2.33;;;;;;;7.02;100.00;91406.25;4994469;28;20061;-77
2024/03/31 08:13:11;;;;;;;17.20;5.72;;;;;;;7.12;100.00;91419.06;4986283;28;20496;-76
2024/03/31 08:15:37;;;;;;;20.77;3.75;;;;;;;7.07;100.00;91403.56;4994749;28;20034;-77
2024/03/31 08:18:02;;;;;;;9.27;2.05;;;;;;;7.35;100.00;91426.94;4988762;28;20412;-77
2024/03/31 08:20:29;;;;;;;10.52;2.85;;;;;;;7.18;100.00;91450.94;4973592;28;20059;-77
2024/03/31 08:22:55;;;;;;;10.98;2.08;;;;;;;6.90;100.00;91422.34;4974088;28;20043;-77
2024/03/31 08:25:20;;;;;;;11.18;2.22;;;;;;;6.77;100.00;91418.66;4972269;28;20031;-77
2024/03/31 08:27:46;;;;;;;10.40;2.13;;;;;;;6.85;100.00;91428.41;4975092;28;20035;-77
2024/03/31 08:30:11;;;;;;;11.20;2.00;;;;;;;6.80;100.00;91428.50;4973651;28;20496;-76
2024/03/31 08:32:38;;;;;;;18.00;2.35;;;;;;;6.81;100.00;91444.88;4971073;28;20527;-76
2024/03/31 08:35:04;;;;;;;11.75;2.72;;;;;;;6.73;100.00;91433.28;4969533;28;20031;-75
2024/03/31 08:37:30;;;;;;;10.15;2.10;;;;;;;6.71;100.00;91434.66;4972462;28;20031;-77
2024/03/31 08:39:56;;;;;;;10.30;2.33;;;;;;;6.94;100.00;91451.94;4964146;28;20058;-76
2024/03/31 08:42:38;;;;;;;9.70;2.00;;;;;;;6.70;100.00;91459.88;4965023;28;20039;-76
2024/03/31 08:45:05;;;;;;;66.83;2.83;;;;;;;6.51;100.00;91469.56;4964344;28;20023;-77
2024/03/31 08:47:34;;;;;;;47.15;2.97;;;;;;;6.42;100.00;91467.63;4969565;28;20034;-76
2024/03/31 08:50:00;;;;;;;176.98;6.00;;;;;;;6.60;100.00;91486.84;4966369;28;20039;-77
2024/03/31 08:52:27;;;;;;;6.82;1.95;;;;;;;6.40;100.00;91467.16;4966659;28;20031;-74
2024/03/31 08:54:55;;;;;;;7.93;1.73;;;;;;;6.34;100.00;91457.88;4966888;28;20034;-81
2024/03/31 08:57:22;;;;;;;9.88;1.90;;;;;;;6.40;100.00;91463.78;4973065;28;20689;-76
2024/03/31 08:59:51;;;;;;;12.60;1.70;;;;;;;6.40;100.00;91464.53;4954852;28;20035;-76
2024/03/31 09:02:22;;;;;;;9.07;2.42;;;;;;;6.42;100.00;91464.28;4963672;28;20038;-76
2024/03/31 09:04:49;;;;;;;3.55;1.25;;;;;;;6.50;100.00;91481.78;4969442;28;20054;-75
2024/03/31 09:07:15;;;;;;;3.63;1.70;;;;;;;6.66;100.00;91492.72;4968407;28;20727;-76
2024/03/31 09:09:42;;;;;;;5.25;1.50;;;;;;;6.63;100.00;91481.06;4964377;28;20039;-77
2024/03/31 09:12:09;;;;;;;6.40;1.67;;;;;;;6.58;100.00;91462.94;4963690;28;20489;-76
2024/03/31 09:14:37;;;;;;;2.70;1.20;;;;;;;6.50;100.00;91471.41;4969320;28;20039;-76
2024/03/31 09:17:06;;;;;;;8.13;1.20;;;;;;;6.55;100.00;91483.53;4966095;28;20026;-76
2024/03/31 09:19:31;;;;;;;6.82;1.80;;;;;;;6.67;100.00;91469.03;4966553;28;20051;-74
2024/03/31 09:21:57;;;;;;;9.20;2.20;;;;;;;6.56;100.00;91472.88;4967648;28;20031;-76
2024/03/31 09:24:23;;;;;;;5.82;2.20;;;;;;;6.50;100.00;91474.00;4984604;28;20130;-76
2024/03/31 09:26:49;;;;;;;3.00;1.30;;;;;;;6.63;100.00;91475.88;4959820;28;20765;-76
2024/03/31 09:29:15;;;;;;;6.03;1.25;;;;;;;6.64;100.00;91472.22;4964459;28;20093;-75
2024/03/31 09:31:41;;;;;;;3.10;1.20;;;;;;;6.63;100.00;91459.50;4964826;28;20043;-74
2024/03/31 09:34:07;;;;;;;8.15;1.73;;;;;;;6.55;100.00;91463.53;4965581;28;20046;-74
2024/03/31 09:36:36;;;;;;;4.25;1.30;;;;;;;6.63;100.00;91472.50;4962761;28;20413;-75
2024/03/31 09:39:03;;;;;;;9.43;1.50;;;;;;;6.54;100.00;91466.41;4965614;28;20034;-76
2024/03/31 09:41:30;;;;;;;8.00;1.75;;;;;;;6.53;100.00;91473.44;4963137;28;20039;-76
2024/03/31 09:43:55;;;;;;;8.93;2.25;;;;;;;6.54;100.00;91479.41;4962512;28;20038;-75
2024/03/31 09:46:21;;;;;;;7.47;2.72;;;;;;;6.47;100.00;91496.16;4963211;28;20043;-75
2024/03/31 09:48:50;;;;;;;7.05;1.60;;;;;;;6.40;100.00;91487.94;4955450;28;20030;-76
2024/03/31 09:51:21;;;;;;;1.90;1.05;;;;;;;6.37;100.00;91478.13;4963750;28;20026;-76
2024/03/31 09:54:00;;;;;;;3.72;1.10;;;;;;;6.39;100.00;91491.59;4959377;28;20046;-77
2024/03/31 09:56:47;;;;;;;1.90;1.25;;;;;;;6.40;100.00;91490.53;4966836;28;20534;-76
2024/03/31 09:59:15;;;;;;;5.82;1.40;;;;;;;6.41;100.00;91481.66;4959995;28;20110;-77
2024/03/31 10:01:45;;;;;;;3.22;1.30;;;;;;;6.48;100.00;91476.09;4959108;28;20061;-75
2024/03/31 10:04:26;;;;;;;4.35;1.77;;;;;;;6.65;100.00;91488.59;4961039;28;20042;-77
2024/03/31 10:06:53;;;;;;;3.63;1.30;;;;;;;6.72;100.00;91494.19;4958625;28;20039;-76
2024/03/31 10:09:19;;;;;;;3.40;1.10;;;;;;;6.67;100.00;91491.69;4963315;28;20038;-76
2024/03/31 10:11:45;;;;;;;3.03;1.40;;;;;;;6.70;100.00;91500.72;4964819;28;20054;-77
2024/03/31 10:14:13;;;;;;;6.90;2.60;;;;;;;6.77;100.00;91507.09;4945087;28;20046;-77
2024/03/31 10:16:40;;;;;;;256.70;8.90;;;;;;;6.70;100.00;91511.91;4962660;28;20043;-77
2024/03/31 10:19:06;;;;;;;416.10;23.92;;;;;;;6.59;100.00;91500.13;4979995;28;20120;-76
2024/03/31 10:21:33;;;;;;;10.13;3.88;;;;;;;6.64;100.00;91510.44;4999909;28;20499;-75
2024/03/31 10:24:00;;;;;;;144.00;5.72;;;;;;;6.66;100.00;91516.13;5001680;28;20777;-75
2024/03/31 10:26:26;;;;;;;3.17;1.80;;;;;;;6.76;100.00;91521.16;5005121;28;20033;-76
2024/03/31 10:28:53;;;;;;;182.50;7.20;;;;;;;6.64;100.00;91518.25;5005693;28;20033;-76
2024/03/31 10:31:20;;;;;;;13.60;6.60;;;;;;;6.49;100.00;91515.91;5002981;28;20050;-77
2024/03/31 10:33:45;;;;;;;9.95;3.08;;;;;;;6.53;100.00;91522.84;5005982;28;20034;-78
2024/03/31 10:36:13;;;;;;;6.57;2.42;;;;;;;6.46;100.00;91520.63;5004338;28;20042;-78
2024/03/31 10:38:44;;;;;;;5.47;2.42;;;;;;;6.49;100.00;91518.50;5004722;28;20057;-77
2024/03/31 10:41:11;;;;;;;14.15;7.32;;;;;;;6.59;100.00;91518.31;4994144;28;20527;-77
2024/03/31 10:43:38;;;;;;;7.00;2.53;;;;;;;6.58;100.00;91519.41;5000938;28;20249;-76
2024/03/31 10:46:07;;;;;;;9.52;2.35;;;;;;;6.68;100.00;91529.63;5005676;28;20038;-77
2024/03/31 10:48:33;;;;;;;4.97;1.65;;;;;;;6.79;100.00;91530.22;4987496;28;20064;-77
2024/03/31 10:51:15;;;;;;;9.10;2.58;;;;;;;6.83;100.00;91531.97;5007040;28;20116;-77
2024/03/31 10:53:41;;;;;;;8.02;2.30;;;;;;;6.72;100.00;91530.59;4998131;28;20034;-77
2024/03/31 10:56:07;;;;;;;8.85;2.15;;;;;;;6.70;100.00;91531.94;4988408;28;20052;-76
2024/03/31 10:58:33;;;;;;;9.98;4.00;;;;;;;6.73;100.00;91521.72;5003523;28;20048;-78
2024/03/31 11:01:02;;;;;;;5.45;1.90;;;;;;;6.79;100.00;91525.03;4987817;28;20483;-77
2024/03/31 11:03:31;;;;;;;8.30;1.90;;;;;;;6.83;100.00;91526.00;5007280;28;20556;-75
2024/03/31 11:05:58;;;;;;;8.63;2.55;;;;;;;6.88;100.00;91523.31;5006636;28;20649;-76
2024/03/31 11:08:25;;;;;;;8.00;2.53;;;;;;;7.02;100.00;91541.53;5002350;28;20456;-77
2024/03/31 11:10:51;;;;;;;19.17;9.55;;;;;;;6.97;100.00;91546.84;4999360;28;20573;-77
2024/03/31 11:13:17;;;;;;;11.88;4.55;;;;;;;7.00;100.00;91536.66;4986459;28;20030;-76
2024/03/31 11:15:43;;;;;;;8.23;1.80;;;;;;;7.13;100.00;91544.75;5002487;28;20038;-75
2024/03/31 11:18:10;;;;;;;5.30;1.90;;;;;;;7.22;100.00;91543.03;5006993;28;20038;-77
2024/03/31 11:20:44;;;;;;;8.35;1.88;;;;;;;7.36;100.00;91522.97;5002612;28;20065;-76
2024/03/31 11:23:13;;;;;;;8.63;3.78;;;;;;;7.50;100.00;91509.97;4986552;28;20030;-76